Time;durP1;ratioP1;P1;durP2;ratioP2;P2;SDS_P1;SDS_P2;PMS_P1;PMS_P2;Temp;Humidity;BMP_temperature;BMP_pressure;BME280_temperature;BME280_humidity;BME280_pressure;Samples;Min_cycle;Max_cycle;Signal;HPM_P1;HPM_P2
2022/11/03 00:01:43;;;;;;;;;;;12.40;99.90;;;;;;5068621;28;20059;-38
2022/11/03 00:04:14;;;;;;;5.30;2.15;;;12.40;99.90;;;;;;5076896;28;19916;-40
2022/11/03 00:06:44;;;;;;;10.73;2.53;;;12.40;99.90;;;;;;5083285;28;20024;-39
2022/11/03 00:09:12;;;;;;;9.30;1.92;;;12.40;99.90;;;;;;5073849;28;20123;-37
2022/11/03 00:11:40;;;;;;;8.27;2.45;;;12.40;99.90;;;;;;5080151;28;20024;-39
2022/11/03 00:14:08;;;;;;;7.60;2.10;;;12.40;99.90;;;;;;5078651;28;20126;-42
2022/11/03 00:16:33;;;;;;;7.90;1.85;;;12.40;99.90;;;;;;5065986;28;20477;-39
2022/11/03 00:18:59;;;;;;;8.77;2.25;;;12.40;99.90;;;;;;5077441;28;20637;-40
2022/11/03 00:21:24;;;;;;;8.98;1.88;;;12.40;99.90;;;;;;5065829;28;20024;-39
2022/11/03 00:23:50;;;;;;;10.48;2.03;;;12.40;99.90;;;;;;5076277;28;20020;-39
2022/11/03 00:26:20;;;;;;;6.57;2.20;;;12.50;99.90;;;;;;5066761;28;20025;-40
2022/11/03 00:28:47;;;;;;;8.25;2.13;;;12.50;99.90;;;;;;5073434;28;20431;-40
2022/11/03 00:31:14;;;;;;;8.95;2.28;;;12.50;99.90;;;;;;5069426;28;20121;-39
2022/11/03 00:33:41;;;;;;;13.15;2.58;;;12.50;99.90;;;;;;5070549;28;20503;-41
2022/11/03 00:36:09;;;;;;;11.20;2.70;;;12.50;99.90;;;;;;5071832;28;20048;-38
2022/11/03 00:38:36;;;;;;;9.90;2.58;;;12.50;99.90;;;;;;5069392;28;20028;-39
2022/11/03 00:41:03;;;;;;;11.20;2.17;;;12.50;99.90;;;;;;5073541;28;20147;-40
2022/11/03 00:43:30;;;;;;;8.30;2.22;;;12.50;99.90;;;;;;5065929;28;20024;-40
2022/11/03 00:45:56;;;;;;;10.43;2.00;;;12.50;99.90;;;;;;5075858;28;20586;-40
2022/11/03 00:48:28;;;;;;;6.43;2.10;;;12.50;99.90;;;;;;5065430;28;20166;-39
2022/11/03 00:50:58;;;;;;;4.15;1.60;;;12.50;99.90;;;;;;5077113;28;20016;-41
2022/11/03 00:53:24;;;;;;;6.28;2.20;;;12.50;99.90;;;;;;5065829;28;20032;-40
2022/11/03 00:55:49;;;;;;;7.63;1.90;;;12.50;99.90;;;;;;5075661;28;20044;-38
2022/11/03 00:58:15;;;;;;;9.43;1.88;;;12.50;99.90;;;;;;5064797;28;20416;-41
2022/11/03 01:00:40;;;;;;;11.20;2.13;;;12.40;99.90;;;;;;5076804;28;20020;-39
2022/11/03 01:03:06;;;;;;;8.02;2.10;;;12.50;99.90;;;;;;5065063;28;20032;-40
2022/11/03 01:08:15;;;;;;;7.35;2.00;;;12.50;99.90;;;;;;5063969;28;20047;-39
2022/11/03 01:11:42;;;;;;;6.50;2.00;;;12.50;99.90;;;;;;5077327;28;20028;-40
2022/11/03 01:13:27;;;;;;;7.53;2.13;;;12.50;99.90;;;;;;5064556;28;20169;-38
2022/11/03 01:15:59;;;;;;;7.43;1.88;;;12.50;99.90;;;;;;5076465;28;20032;-42
2022/11/03 01:18:27;;;;;;;10.65;2.40;;;12.50;99.90;;;;;;5063831;28;20115;-40
2022/11/03 01:20:56;;;;;;;9.68;2.45;;;12.50;99.90;;;;;;5076154;28;20634;-40
2022/11/03 01:23:22;;;;;;;7.63;2.08;;;12.50;99.90;;;;;;5063731;28;20583;-39
2022/11/03 01:25:48;;;;;;;7.03;2.22;;;12.40;99.90;;;;;;5073434;28;20479;-39
2022/11/03 01:28:14;;;;;;;9.35;1.80;;;12.40;99.90;;;;;;5067317;28;20064;-38
2022/11/03 01:30:39;;;;;;;7.13;2.08;;;12.40;99.90;;;;;;5070091;28;20024;-40
2022/11/03 01:33:05;;;;;;;8.15;2.00;;;12.40;99.90;;;;;;5070093;28;20062;-39
2022/11/03 01:35:30;;;;;;;9.18;1.80;;;12.50;99.90;;;;;;5068468;28;20028;-40
2022/11/03 01:37:56;;;;;;;6.53;1.88;;;12.40;99.90;;;;;;5071801;28;20024;-39
2022/11/03 01:40:22;;;;;;;8.82;1.90;;;12.40;99.90;;;;;;5064883;28;20094;-39
2022/11/03 01:42:47;;;;;;;9.23;2.03;;;12.40;99.90;;;;;;5074647;28;20051;-40
2022/11/03 01:45:13;;;;;;;7.75;1.98;;;12.40;99.90;;;;;;5064659;28;20448;-37
2022/11/03 01:47:41;;;;;;;6.93;2.25;;;12.40;99.90;;;;;;5075017;28;20024;-40
2022/11/03 01:50:14;;;;;;;6.22;1.85;;;12.40;99.90;;;;;;5063294;28;20124;-40
2022/11/03 01:52:54;;;;;;;5.22;1.90;;;12.40;99.90;;;;;;5075409;28;20079;-39
2022/11/03 01:55:25;;;;;;;7.10;2.15;;;12.40;99.90;;;;;;5063942;28;20032;-39
2022/11/03 01:58:14;;;;;;;8.10;2.63;;;12.40;99.90;;;;;;5074437;28;20080;-38
2022/11/03 02:00:42;;;;;;;8.68;1.95;;;12.30;99.90;;;;;;5065218;28;20086;-37
2022/11/03 02:03:08;;;;;;;8.85;2.53;;;12.40;99.90;;;;;;5074746;28;20051;-39
2022/11/03 02:05:35;;;;;;;8.02;2.20;;;12.40;99.90;;;;;;5063455;28;20419;-40
2022/11/03 02:08:04;;;;;;;9.80;2.20;;;12.30;99.90;;;;;;5076234;28;20501;-38
2022/11/03 02:10:30;;;;;;;9.38;2.00;;;12.30;99.90;;;;;;5063143;28;20609;-39
2022/11/03 02:12:56;;;;;;;7.07;2.03;;;12.30;99.90;;;;;;5075719;28;20032;-40
2022/11/03 02:15:22;;;;;;;8.93;2.40;;;12.30;99.90;;;;;;5063256;28;20055;-39
2022/11/03 02:17:50;;;;;;;9.20;2.15;;;12.30;99.90;;;;;;5075142;28;20150;-39
2022/11/03 02:20:21;;;;;;;9.82;2.35;;;12.30;99.90;;;;;;5063136;28;20028;-34
2022/11/03 02:23:24;;;;;;;11.15;1.92;;;12.20;99.90;;;;;;5073492;28;20043;-38
2022/11/03 02:25:54;;;;;;;6.88;3.00;;;12.30;99.90;;;;;;5062916;28;20028;-37
2022/11/03 02:28:26;;;;;;;7.45;1.90;;;12.20;99.90;;;;;;5075542;28;20062;-37
2022/11/03 02:31:09;;;;;;;7.25;2.05;;;12.20;99.90;;;;;;5063889;28;20035;-41
2022/11/03 02:33:51;;;;;;;5.57;1.88;;;12.20;99.90;;;;;;5075626;28;20063;-39
2022/11/03 02:36:25;;;;;;;8.65;2.00;;;12.20;99.90;;;;;;5066056;28;20127;-39
2022/11/03 02:39:04;;;;;;;6.40;1.90;;;12.10;99.90;;;;;;5069536;28;20051;-38
2022/11/03 02:41:33;;;;;;;7.22;2.15;;;12.00;99.90;;;;;;5083633;28;20116;-38
2022/11/03 02:44:00;;;;;;;5.00;1.73;;;12.00;99.90;;;;;;5070584;28;20055;-36
2022/11/03 02:46:29;;;;;;;6.85;1.88;;;11.90;99.90;;;;;;5082377;28;20570;-37
2022/11/03 02:48:56;;;;;;;5.32;1.75;;;11.90;99.90;;;;;;5070814;28;20369;-38
2022/11/03 02:51:22;;;;;;;5.28;1.90;;;11.90;99.90;;;;;;5082305;28;20020;-37
2022/11/03 02:54:00;;;;;;;8.23;2.10;;;11.80;99.90;;;;;;5072369;28;20033;-40
2022/11/03 02:56:28;;;;;;;5.47;1.80;;;11.80;99.90;;;;;;5081875;28;20040;-40
2022/11/03 02:59:03;;;;;;;6.10;1.83;;;11.80;99.90;;;;;;5073390;28;20025;-39
2022/11/03 03:01:45;;;;;;;8.60;1.90;;;11.80;99.90;;;;;;5080191;28;20050;-39
2022/11/03 03:04:14;;;;;;;7.43;2.13;;;11.70;99.90;;;;;;5072753;28;20020;-40
2022/11/03 03:06:49;;;;;;;6.80;1.90;;;11.70;99.90;;;;;;5080805;28;20292;-39
2022/11/03 03:09:21;;;;;;;7.22;2.80;;;11.70;99.90;;;;;;5072460;28;20085;-40
2022/11/03 03:11:50;;;;;;;8.50;2.40;;;11.70;99.90;;;;;;5080803;28;20097;-40
2022/11/03 03:14:24;;;;;;;6.57;1.95;;;11.70;99.90;;;;;;5073597;28;20047;-40
2022/11/03 03:16:56;;;;;;;6.40;1.75;;;11.70;99.90;;;;;;5079424;28;20043;-39
2022/11/03 03:19:54;;;;;;;6.22;1.88;;;11.70;99.90;;;;;;5075237;28;20025;-39
2022/11/03 03:22:28;;;;;;;5.20;1.75;;;11.70;99.90;;;;;;5076046;28;20556;-39
2022/11/03 03:25:14;;;;;;;8.23;2.58;;;11.60;99.90;;;;;;5072060;28;20065;-40
2022/11/03 03:27:49;;;;;;;6.63;1.77;;;11.60;99.90;;;;;;5064166;28;20537;-39
2022/11/03 03:30:16;;;;;;;5.85;1.63;;;11.60;99.90;;;;;;5078076;28;20046;-40
2022/11/03 03:32:47;;;;;;;6.95;1.95;;;11.60;99.90;;;;;;5066655;28;20039;-37
2022/11/03 03:35:18;;;;;;;7.90;1.60;;;11.60;99.90;;;;;;5069894;28;20043;-37
2022/11/03 03:37:47;;;;;;;3.65;1.42;;;11.60;99.90;;;;;;5085245;28;20098;-39
2022/11/03 03:40:17;;;;;;;7.95;1.60;;;11.50;99.90;;;;;;5077402;28;20015;-39
2022/11/03 03:42:45;;;;;;;10.85;1.67;;;11.50;99.90;;;;;;5082411;28;20118;-40
2022/11/03 03:45:11;;;;;;;7.97;1.92;;;11.50;99.90;;;;;;5079177;28;20025;-41
2022/11/03 03:47:37;;;;;;;9.30;1.90;;;11.40;99.90;;;;;;5080810;28;20051;-40
2022/11/03 03:50:03;;;;;;;4.40;1.60;;;11.40;99.90;;;;;;5081075;28;20372;-39
2022/11/03 03:52:29;;;;;;;6.20;1.65;;;11.50;99.90;;;;;;5075920;28;20020;-40
2022/11/03 03:54:55;;;;;;;7.50;2.33;;;11.50;99.90;;;;;;5074093;28;20078;-39
2022/11/03 03:57:23;;;;;;;8.20;1.70;;;11.50;99.90;;;;;;5074150;28;20038;-39
2022/11/03 03:59:49;;;;;;;5.68;1.55;;;11.50;99.90;;;;;;5084490;28;20023;-40
2022/11/03 04:02:15;;;;;;;5.78;1.95;;;11.50;99.90;;;;;;5074496;28;20016;-39
2022/11/03 04:04:41;;;;;;;6.07;1.60;;;11.50;99.90;;;;;;5084519;28;20062;-40
2022/11/03 04:09:51;;;;;;;6.70;2.15;;;11.50;99.90;;;;;;5085723;28;20065;-38
2022/11/03 04:23:18;;;;;;;11.25;2.70;;;11.50;99.90;;;;;;5075865;28;20074;-38
2022/11/03 04:25:50;;;;;;;7.20;1.73;;;11.50;99.90;;;;;;5083619;28;20468;-39
2022/11/03 04:28:16;;;;;;;6.45;1.52;;;11.50;99.90;;;;;;5073528;28;20031;-38
2022/11/03 04:30:42;;;;;;;8.95;1.80;;;11.50;99.90;;;;;;5084212;28;20429;-41
2022/11/03 04:33:19;;;;;;;4.93;1.70;;;11.50;99.90;;;;;;5073148;28;20036;-35
2022/11/03 04:35:46;;;;;;;7.88;1.80;;;11.60;99.90;;;;;;5084519;28;20115;-40
2022/11/03 04:38:15;;;;;;;7.35;1.83;;;11.50;99.90;;;;;;5073437;28;20028;-40
2022/11/03 04:40:51;;;;;;;5.78;1.92;;;11.60;99.90;;;;;;5084759;28;20031;-40
2022/11/03 04:43:19;;;;;;;6.60;1.90;;;11.60;99.90;;;;;;5077556;28;20028;-37
2022/11/03 04:45:46;;;;;;;8.48;1.65;;;11.70;99.90;;;;;;5064750;28;20028;-41
2022/11/03 04:48:20;;;;;;;6.50;2.03;;;11.70;99.90;;;;;;5077046;28;20039;-40
2022/11/03 04:50:48;;;;;;;8.18;2.17;;;11.80;99.90;;;;;;5065532;28;20070;-39
2022/11/03 04:53:16;;;;;;;5.63;2.17;;;11.80;99.90;;;;;;5076980;28;20085;-40
2022/11/03 04:55:43;;;;;;;6.13;1.60;;;11.80;99.90;;;;;;5065260;28;20032;-38
2022/11/03 04:58:33;;;;;;;4.88;1.60;;;11.80;99.90;;;;;;5075735;28;20348;-40
2022/11/03 05:01:00;;;;;;;8.43;2.00;;;11.90;99.90;;;;;;5050002;28;20032;-40
2022/11/03 05:03:34;;;;;;;7.35;2.20;;;11.90;99.90;;;;;;5076673;28;20442;-39
2022/11/03 05:06:10;;;;;;;8.35;2.10;;;11.90;99.90;;;;;;5065050;28;20029;-40
2022/11/03 05:08:35;;;;;;;8.23;2.05;;;11.90;99.90;;;;;;5077046;28;20035;-36
2022/11/03 05:11:31;;;;;;;6.05;1.50;;;11.90;99.90;;;;;;5065315;28;20044;-38
2022/11/03 05:14:17;;;;;;;6.88;2.13;;;12.00;99.90;;;;;;5067015;28;20032;-40
2022/11/03 05:16:43;;;;;;;6.15;1.98;;;12.00;99.90;;;;;;5083145;28;20762;-39
2022/11/03 05:19:27;;;;;;;7.97;2.53;;;12.00;99.90;;;;;;5068995;28;20020;-40
2022/11/03 05:21:54;;;;;;;7.05;2.35;;;12.00;99.90;;;;;;5084592;28;20020;-40
2022/11/03 05:24:24;;;;;;;7.78;1.80;;;12.10;99.90;;;;;;5071110;28;20358;-39
2022/11/03 05:26:50;;;;;;;6.05;1.80;;;12.10;99.90;;;;;;5085013;28;20074;-40
2022/11/03 05:29:22;;;;;;;5.70;1.80;;;12.10;99.90;;;;;;5071148;28;20171;-41
2022/11/03 05:31:49;;;;;;;6.30;1.90;;;12.10;99.90;;;;;;5063702;28;20467;-39
2022/11/03 05:34:30;;;;;;;4.82;1.88;;;12.10;99.90;;;;;;5074019;28;20567;-41
2022/11/03 05:37:08;;;;;;;6.22;2.00;;;12.10;99.90;;;;;;5063717;28;20082;-41
2022/11/03 05:39:36;;;;;;;9.98;2.25;;;12.10;99.90;;;;;;5076120;28;20507;-40
2022/11/03 05:42:22;;;;;;;9.48;1.95;;;12.10;99.90;;;;;;5063797;28;20032;-39
2022/11/03 05:44:49;;;;;;;5.85;1.98;;;12.10;99.90;;;;;;5058574;28;20506;-39
2022/11/03 05:47:24;;;;;;;3.65;1.65;;;12.20;99.90;;;;;;5063839;28;20020;-40
2022/11/03 05:49:59;;;;;;;6.00;1.60;;;12.20;99.90;;;;;;5074384;28;20069;-40
2022/11/03 05:52:26;;;;;;;6.65;2.20;;;12.20;99.90;;;;;;5063602;28;20032;-39
2022/11/03 05:54:58;;;;;;;5.97;1.70;;;12.20;99.90;;;;;;5073924;28;20378;-39
2022/11/03 05:57:28;;;;;;;6.95;1.73;;;12.30;99.90;;;;;;5065196;28;20039;-37
2022/11/03 05:59:55;;;;;;;4.22;2.00;;;12.30;99.90;;;;;;5073074;28;20092;-40
2022/11/03 06:02:40;;;;;;;6.28;2.25;;;12.40;99.90;;;;;;5066452;28;20079;-39
2022/11/03 06:05:21;;;;;;;6.00;1.88;;;12.40;99.90;;;;;;5072952;28;20451;-40
2022/11/03 06:07:52;;;;;;;5.55;2.17;;;12.40;99.90;;;;;;5065867;28;20029;-40
2022/11/03 06:10:20;;;;;;;5.72;1.90;;;12.40;99.90;;;;;;5072322;28;20016;-38
2022/11/03 06:12:46;;;;;;;7.25;2.67;;;12.50;99.90;;;;;;5067120;28;20060;-39
2022/11/03 06:15:27;;;;;;;10.45;2.05;;;12.50;99.90;;;;;;5071522;28;20136;-36
2022/11/03 06:17:53;;;;;;;8.23;1.80;;;12.50;99.90;;;;;;5083969;28;20043;-42
2022/11/03 06:20:21;;;;;;;5.32;1.40;;;12.50;99.90;;;;;;5077316;28;20650;-38
2022/11/03 06:22:47;;;;;;;6.30;2.10;;;12.50;99.90;;;;;;5078300;28;20020;-40
2022/11/03 06:25:36;;;;;;;6.70;1.85;;;12.50;99.90;;;;;;5078242;28;20100;-39
2022/11/03 06:28:23;;;;;;;7.57;2.05;;;12.50;99.90;;;;;;5078826;28;20020;-38
2022/11/03 06:30:49;;;;;;;4.95;1.80;;;12.50;99.90;;;;;;5074564;28;20032;-40
2022/11/03 06:33:17;;;;;;;6.78;2.30;;;12.50;99.90;;;;;;5069604;28;20101;-40
2022/11/03 06:35:43;;;;;;;7.68;2.40;;;12.50;99.90;;;;;;5079345;28;20032;-40
2022/11/03 06:38:18;;;;;;;6.97;1.98;;;12.50;99.90;;;;;;5068840;28;20137;-38
2022/11/03 06:40:45;;;;;;;8.18;2.83;;;12.50;99.90;;;;;;5065512;28;20142;-40
2022/11/03 06:43:24;;;;;;;5.63;1.70;;;12.50;99.90;;;;;;5070511;28;20032;-40
2022/11/03 06:45:53;;;;;;;6.05;1.90;;;12.40;99.90;;;;;;5065602;28;20028;-39
2022/11/03 06:48:24;;;;;;;9.30;2.90;;;12.40;99.90;;;;;;5070705;28;20032;-38
2022/11/03 06:50:49;;;;;;;7.65;2.10;;;12.40;99.90;;;;;;5064493;28;20384;-39
2022/11/03 06:53:28;;;;;;;5.00;1.70;;;12.40;99.90;;;;;;5072358;28;20016;-40
2022/11/03 06:55:54;;;;;;;5.57;1.83;;;12.40;99.90;;;;;;5063536;28;20033;-39
2022/11/03 06:58:29;;;;;;;3.63;1.40;;;12.40;99.90;;;;;;5070841;28;20039;-40
2022/11/03 07:01:00;;;;;;;6.97;2.10;;;12.40;99.90;;;;;;5080428;28;20750;-40
2022/11/03 07:03:32;;;;;;;7.28;1.80;;;12.40;99.90;;;;;;5070015;28;20028;-40
2022/11/03 07:06:20;;;;;;;6.07;2.17;;;12.40;99.90;;;;;;5081238;28;20051;-39
2022/11/03 07:08:52;;;;;;;6.97;2.00;;;12.40;99.90;;;;;;5072125;28;20017;-40
2022/11/03 07:11:20;;;;;;;7.13;3.10;;;12.40;99.90;;;;;;5081335;28;20058;-38
2022/11/03 07:13:48;;;;;;;9.45;3.75;;;12.40;99.90;;;;;;5071011;28;20031;-38
2022/11/03 07:16:31;;;;;;;6.05;2.40;;;12.40;99.90;;;;;;5081087;28;20043;-40
2022/11/03 07:18:59;;;;;;;9.27;2.53;;;12.50;99.90;;;;;;5071674;28;20751;-40
2022/11/03 07:21:43;;;;;;;7.40;2.67;;;12.50;99.90;;;;;;5080619;28;20012;-40
2022/11/03 07:24:20;;;;;;;9.60;2.38;;;12.50;99.90;;;;;;5071784;28;20020;-38
2022/11/03 07:26:48;;;;;;;7.13;2.22;;;12.60;99.90;;;;;;5082223;28;20509;-39
2022/11/03 07:29:20;;;;;;;10.27;2.45;;;12.60;99.90;;;;;;5058634;28;20097;-40
2022/11/03 07:31:45;;;;;;;11.48;2.80;;;12.60;99.90;;;;;;5081466;28;20433;-41
2022/11/03 07:34:17;;;;;;;6.47;1.88;;;12.70;99.90;;;;;;5071873;28;20036;-40
2022/11/03 07:36:44;;;;;;;5.80;1.80;;;12.80;99.90;;;;;;5062910;28;20033;-40
2022/11/03 07:39:14;;;;;;;8.73;2.30;;;12.80;99.90;;;;;;5070076;28;20413;-40
2022/11/03 07:41:41;;;;;;;5.63;2.08;;;12.80;99.90;;;;;;5083420;28;20058;-39
2022/11/03 07:44:19;;;;;;;6.32;2.25;;;12.90;99.90;;;;;;5069914;28;20452;-39
2022/11/03 07:46:46;;;;;;;6.10;1.73;;;12.90;99.90;;;;;;5083638;28;20081;-40
2022/11/03 07:49:30;;;;;;;5.82;1.90;;;12.90;99.90;;;;;;5075414;28;20387;-40
2022/11/03 07:51:58;;;;;;;6.18;2.20;;;12.90;99.90;;;;;;5082247;28;20024;-40
2022/11/03 07:54:29;;;;;;;8.07;2.33;;;12.90;99.90;;;;;;5074226;28;20032;-39
2022/11/03 07:57:05;;;;;;;6.72;2.40;;;12.90;99.90;;;;;;5081065;28;20028;-40
2022/11/03 07:59:52;;;;;;;4.18;1.83;;;13.00;99.90;;;;;;5078533;28;20110;-37
2022/11/03 08:02:28;;;;;;;7.38;2.20;;;13.00;99.90;;;;;;5081375;28;20078;-40
2022/11/03 08:04:54;;;;;;;5.20;1.70;;;13.00;99.90;;;;;;5072442;28;20035;-39
2022/11/03 08:07:19;;;;;;;5.85;2.10;;;13.00;99.90;;;;;;5079178;28;20020;-38
2022/11/03 08:09:45;;;;;;;5.28;1.80;;;13.00;99.90;;;;;;5068516;28;20031;-34
2022/11/03 08:12:10;;;;;;;7.95;2.00;;;13.10;99.90;;;;;;5082146;28;20031;-41
2022/11/03 08:14:36;;;;;;;6.88;1.85;;;13.10;99.90;;;;;;5074050;28;20039;-39
2022/11/03 08:17:02;;;;;;;4.15;1.75;;;13.20;99.90;;;;;;5083037;28;20090;-39
2022/11/03 08:19:28;;;;;;;6.55;1.85;;;13.20;99.90;;;;;;5077200;28;20024;-40
2022/11/03 08:21:54;;;;;;;7.63;1.90;;;13.20;99.90;;;;;;5081452;28;20032;-41
2022/11/03 08:24:19;;;;;;;4.57;1.92;;;13.30;99.90;;;;;;5078972;28;20028;-40
2022/11/03 08:26:45;;;;;;;7.82;2.30;;;13.30;99.90;;;;;;5078718;28;20027;-37
2022/11/03 08:29:10;;;;;;;7.25;2.42;;;13.30;99.90;;;;;;5082169;28;20024;-41
2022/11/03 08:31:36;;;;;;;6.00;2.38;;;13.30;99.90;;;;;;5075049;28;20036;-39
2022/11/03 08:34:01;;;;;;;3.17;1.75;;;13.30;99.90;;;;;;5084111;28;20048;-36
2022/11/03 08:36:27;;;;;;;5.47;1.88;;;13.30;99.90;;;;;;5073805;28;20043;-40
2022/11/03 08:38:53;;;;;;;4.78;1.83;;;13.30;99.90;;;;;;5083555;28;20020;-40
2022/11/03 08:41:18;;;;;;;4.82;1.80;;;13.40;99.90;;;;;;5072853;28;20071;-40
2022/11/03 08:43:44;;;;;;;4.85;1.77;;;13.40;99.90;;;;;;5081069;28;20025;-41
2022/11/03 08:46:12;;;;;;;5.95;2.25;;;13.40;99.90;;;;;;5078452;28;20169;-41
2022/11/03 08:48:41;;;;;;;6.03;1.98;;;13.40;99.90;;;;;;5065493;28;20116;-40
2022/11/03 08:51:12;;;;;;;8.15;2.17;;;13.50;99.90;;;;;;5076948;28;20020;-40
2022/11/03 08:53:38;;;;;;;6.35;2.10;;;13.40;99.90;;;;;;5064305;28;20040;-36
2022/11/03 08:56:04;;;;;;;5.88;1.90;;;13.50;99.90;;;;;;5075951;28;20024;-39
2022/11/03 08:58:30;;;;;;;7.13;3.00;;;13.50;99.90;;;;;;5065421;28;20025;-39
2022/11/03 09:00:56;;;;;;;6.82;2.22;;;13.60;99.90;;;;;;5072853;28;20027;-40
2022/11/03 09:03:21;;;;;;;7.57;2.85;;;13.60;99.90;;;;;;5068846;28;20143;-38
2022/11/03 09:05:47;;;;;;;6.13;2.05;;;13.70;99.90;;;;;;5068706;28;20024;-39
2022/11/03 09:08:12;;;;;;;5.38;1.92;;;13.70;99.90;;;;;;5070140;28;20028;-39
2022/11/03 09:10:38;;;;;;;8.63;2.25;;;13.70;99.90;;;;;;5068097;28;20028;-38
2022/11/03 09:13:04;;;;;;;6.07;1.92;;;13.80;99.90;;;;;;5073410;28;20033;-40
2022/11/03 09:15:30;;;;;;;5.55;1.73;;;13.80;99.90;;;;;;5072322;28;20016;-40
2022/11/03 09:17:56;;;;;;;6.65;2.30;;;13.90;99.90;;;;;;5076192;28;20911;-38
2022/11/03 09:20:21;;;;;;;7.80;2.03;;;14.00;99.90;;;;;;5064216;28;20025;-40
2022/11/03 09:22:47;;;;;;;6.15;1.73;;;14.00;99.90;;;;;;5075940;28;20025;-39
2022/11/03 09:25:12;;;;;;;5.72;1.75;;;14.00;99.90;;;;;;5063363;28;20496;-38
2022/11/03 09:27:38;;;;;;;6.43;1.67;;;14.00;99.90;;;;;;5075988;28;20490;-40
2022/11/03 09:30:05;;;;;;;7.45;2.17;;;14.00;99.90;;;;;;5064605;28;20108;-38
2022/11/03 09:32:30;;;;;;;6.47;3.92;;;14.00;99.90;;;;;;5068462;28;20438;-36
2022/11/03 09:34:59;;;;;;;4.38;1.90;;;14.00;99.90;;;;;;5083809;28;20048;-40
2022/11/03 09:37:24;;;;;;;4.32;1.85;;;14.00;99.90;;;;;;5073018;28;20064;-37
2022/11/03 09:39:50;;;;;;;6.85;2.30;;;14.10;99.90;;;;;;5083224;28;20063;-40
2022/11/03 09:42:17;;;;;;;4.80;2.25;;;14.10;99.90;;;;;;5074672;28;20021;-39
2022/11/03 09:44:42;;;;;;;7.82;1.98;;;14.20;99.90;;;;;;5068067;28;20048;-40
2022/11/03 09:47:17;;;;;;;5.85;1.90;;;14.30;99.90;;;;;;5067884;28;20441;-41
2022/11/03 09:49:42;;;;;;;6.47;2.22;;;14.30;99.90;;;;;;5078633;28;20403;-40
2022/11/03 09:52:14;;;;;;;6.05;2.00;;;14.40;99.90;;;;;;5079937;28;20038;-40
2022/11/03 09:54:40;;;;;;;4.70;1.85;;;14.40;99.90;;;;;;5076924;28;20072;-41
2022/11/03 09:57:11;;;;;;;7.25;2.38;;;14.50;99.90;;;;;;5072832;28;20044;-36
2022/11/03 09:59:38;;;;;;;5.32;1.95;;;14.50;99.90;;;;;;5074199;28;20020;-40
2022/11/03 10:02:15;;;;;;;5.47;1.95;;;14.50;99.90;;;;;;5082438;28;20024;-42
2022/11/03 10:04:43;;;;;;;5.13;1.70;;;14.60;99.90;;;;;;5073887;28;20034;-38
2022/11/03 10:07:09;;;;;;;6.00;1.88;;;14.60;99.90;;;;;;5081825;28;20024;-40
2022/11/03 10:09:34;;;;;;;5.30;1.90;;;14.60;99.90;;;;;;5071740;28;20031;-43
2022/11/03 10:12:00;;;;;;;8.13;2.00;;;14.60;99.90;;;;;;5076505;28;20062;-42
2022/11/03 10:14:26;;;;;;;6.10;1.90;;;14.50;99.90;;;;;;5074369;28;20715;-41
2022/11/03 10:16:59;;;;;;;5.60;2.20;;;14.50;99.90;;;;;;5063032;28;20571;-39
2022/11/03 10:19:24;;;;;;;6.90;2.40;;;14.50;99.90;;;;;;5075188;28;20055;-39
2022/11/03 10:21:50;;;;;;;6.35;1.65;;;14.40;99.90;;;;;;5063506;28;20029;-39
2022/11/03 10:24:16;;;;;;;6.68;2.30;;;14.50;99.90;;;;;;5074973;28;20027;-40
2022/11/03 10:26:46;;;;;;;4.35;1.80;;;14.40;99.90;;;;;;5064155;28;20028;-41
2022/11/03 10:29:24;;;;;;;6.32;1.95;;;14.50;99.90;;;;;;5074222;28;20375;-41
2022/11/03 10:31:52;;;;;;;6.13;1.92;;;14.50;99.90;;;;;;5063098;28;20054;-38
2022/11/03 10:34:37;;;;;;;5.47;1.90;;;14.60;99.90;;;;;;5073973;28;20040;-39
2022/11/03 10:37:21;;;;;;;7.18;2.35;;;14.60;99.90;;;;;;5062577;28;20051;-41
2022/11/03 10:39:48;;;;;;;6.00;1.90;;;14.60;99.90;;;;;;5075908;28;20123;-41
2022/11/03 10:42:23;;;;;;;5.78;1.65;;;14.70;99.90;;;;;;5062878;28;20030;-39
2022/11/03 10:44:54;;;;;;;4.43;1.60;;;14.70;99.90;;;;;;5074601;28;20035;-39
2022/11/03 10:47:40;;;;;;;5.68;2.80;;;14.70;99.90;;;;;;5062937;28;20059;-41
2022/11/03 10:50:24;;;;;;;9.05;2.28;;;14.70;99.90;;;;;;5076031;28;20089;-40
2022/11/03 10:52:50;;;;;;;4.25;2.13;;;14.60;99.90;;;;;;5063009;28;20027;-41
2022/11/03 10:55:17;;;;;;;4.82;1.75;;;14.60;99.90;;;;;;5075053;28;20134;-41
2022/11/03 10:57:43;;;;;;;6.35;2.20;;;14.70;99.90;;;;;;5063299;28;20037;-40
2022/11/03 11:00:16;;;;;;;6.13;1.92;;;14.60;99.90;;;;;;5072890;28;20019;-41
2022/11/03 11:02:44;;;;;;;6.47;2.10;;;14.70;99.90;;;;;;5064603;28;20016;-40
2022/11/03 11:05:19;;;;;;;6.75;2.28;;;14.70;99.90;;;;;;5071767;28;20032;-41
2022/11/03 11:07:45;;;;;;;6.28;1.60;;;14.70;99.90;;;;;;5065010;28;20025;-40
2022/11/03 11:10:23;;;;;;;5.60;1.90;;;14.70;99.90;;;;;;5070310;28;20051;-41
2022/11/03 11:13:13;;;;;;;5.53;1.73;;;14.70;99.90;;;;;;5065322;28;20032;-41
2022/11/03 11:15:44;;;;;;;8.43;1.90;;;14.80;99.90;;;;;;5073491;28;20028;-41
2022/11/03 11:18:31;;;;;;;4.88;1.95;;;14.80;99.90;;;;;;5064006;28;20051;-42
2022/11/03 11:20:58;;;;;;;5.57;1.77;;;14.90;99.90;;;;;;5073210;28;20032;-39
2022/11/03 11:23:32;;;;;;;5.20;1.90;;;14.90;99.90;;;;;;5063104;28;20029;-40
2022/11/03 11:26:16;;;;;;;6.28;1.70;;;15.00;99.90;;;;;;5073168;28;20574;-38
2022/11/03 11:29:07;;;;;;;5.93;1.83;;;15.10;99.90;;;;;;5062825;28;20040;-40
2022/11/03 11:31:33;;;;;;;4.55;2.15;;;15.20;99.90;;;;;;5075076;28;20042;-39
2022/11/03 11:34:08;;;;;;;4.75;1.45;;;15.20;99.90;;;;;;5061938;28;20079;-39
2022/11/03 11:36:44;;;;;;;4.28;1.65;;;15.20;99.90;;;;;;5075212;28;20035;-40
2022/11/03 11:39:22;;;;;;;4.72;1.50;;;15.30;99.90;;;;;;5062144;28;20838;-41
2022/11/03 11:42:12;;;;;;;4.47;1.60;;;15.20;99.90;;;;;;5074293;28;20475;-39
2022/11/03 11:44:53;;;;;;;3.92;1.40;;;15.20;99.90;;;;;;5062855;28;20029;-38
2022/11/03 11:47:34;;;;;;;6.30;2.67;;;15.30;99.90;;;;;;5074689;28;20071;-41
2022/11/03 11:50:05;;;;;;;6.72;3.10;;;15.30;99.90;;;;;;5065718;28;20024;-41
2022/11/03 11:52:54;;;;;;;5.80;2.30;;;15.40;99.90;;;;;;5073495;28;20035;-38
2022/11/03 11:55:44;;;;;;;5.07;2.13;;;15.40;99.90;;;;;;5085422;28;20115;-41
2022/11/03 11:58:23;;;;;;;5.63;1.75;;;15.50;99.90;;;;;;5070985;28;20040;-40
2022/11/03 12:00:58;;;;;;;6.43;1.60;;;15.50;99.90;;;;;;5067826;28;20016;-40
2022/11/03 12:03:41;;;;;;;4.15;1.40;;;15.60;99.90;;;;;;5076350;28;20033;-41
2022/11/03 12:06:08;;;;;;;4.15;1.70;;;15.60;99.90;;;;;;5067283;28;20028;-41
2022/11/03 12:08:34;;;;;;;4.80;1.92;;;15.60;99.90;;;;;;5077251;28;20084;-41
2022/11/03 12:11:02;;;;;;;3.67;1.73;;;15.60;99.90;;;;;;5066102;28;20502;-40
2022/11/03 12:13:35;;;;;;;4.53;1.80;;;15.70;99.90;;;;;;5077283;28;20108;-39
2022/11/03 12:16:00;;;;;;;;;;;15.70;99.90;;;;;;5066352;28;20031;-40
2022/11/03 12:18:35;;;;;;;4.78;1.55;;;15.70;99.90;;;;;;5077974;28;19912;-41
2022/11/03 12:21:03;;;;;;;3.78;1.60;;;15.80;99.90;;;;;;5066142;28;20070;-40
2022/11/03 12:23:40;;;;;;;4.45;1.45;;;15.80;99.90;;;;;;5077050;28;20024;-40
2022/11/03 12:26:31;;;;;;;5.07;1.55;;;15.80;99.90;;;;;;5066025;28;20115;-41
2022/11/03 12:28:57;;;;;;;3.53;1.55;;;15.90;99.90;;;;;;5082377;28;20055;-39
2022/11/03 12:31:22;;;;;;;4.85;1.85;;;15.90;99.90;;;;;;5084917;28;20052;-39
2022/11/03 12:33:48;;;;;;;4.85;1.92;;;15.90;99.90;;;;;;5072471;28;20091;-40
2022/11/03 12:36:13;;;;;;;3.90;2.15;;;15.90;99.90;;;;;;5085659;28;20028;-41
2022/11/03 12:38:39;;;;;;;4.70;2.15;;;15.90;99.90;;;;;;5072316;28;20040;-40
2022/11/03 12:41:20;;;;;;;4.90;1.98;;;15.90;99.90;;;;;;5085771;28;20087;-41
2022/11/03 12:43:47;;;;;;;4.50;1.67;;;15.90;99.90;;;;;;5073311;28;20027;-41
2022/11/03 12:46:12;;;;;;;4.75;1.70;;;15.90;99.90;;;;;;5083573;28;20569;-40
2022/11/03 12:48:42;;;;;;;5.20;1.98;;;16.00;99.90;;;;;;5075733;28;20032;-41
2022/11/03 12:51:09;;;;;;;5.85;2.17;;;16.00;99.90;;;;;;5082087;28;20032;-41
2022/11/03 12:53:35;;;;;;;4.15;1.70;;;15.90;99.90;;;;;;5077978;28;20024;-41
2022/11/03 12:56:00;;;;;;;3.88;1.90;;;16.00;99.90;;;;;;5080769;28;20027;-40
2022/11/03 12:58:26;;;;;;;8.80;2.00;;;16.00;99.90;;;;;;5079231;28;20551;-40
2022/11/03 13:00:51;;;;;;;8.25;1.85;;;15.90;99.90;;;;;;5076973;28;20054;-41
2022/11/03 13:03:17;;;;;;;4.50;2.00;;;16.00;99.90;;;;;;5082443;28;20028;-39
2022/11/03 13:05:42;;;;;;;4.03;1.30;;;16.00;99.90;;;;;;5074439;28;20515;-39
2022/11/03 13:08:08;;;;;;;3.80;1.85;;;15.90;99.90;;;;;;5082277;28;20036;-41
2022/11/03 13:10:33;;;;;;;4.85;1.48;;;16.00;99.90;;;;;;5074202;28;20039;-42
2022/11/03 13:12:59;;;;;;;6.05;1.92;;;16.00;99.90;;;;;;5083899;28;20027;-36
2022/11/03 13:15:24;;;;;;;4.85;1.67;;;16.00;99.90;;;;;;5072442;28;20524;-38
2022/11/03 13:17:50;;;;;;;4.35;1.73;;;16.00;99.90;;;;;;5085225;28;20540;-41
2022/11/03 13:20:16;;;;;;;6.43;1.80;;;16.00;99.90;;;;;;5070927;28;20028;-42
2022/11/03 13:22:42;;;;;;;4.25;1.50;;;16.10;99.90;;;;;;5085130;28;20056;-40